createdAt,value
2018-02-01T00:01:25.117Z,26.30
2018-02-01T00:03:52.776Z,22.63
2018-02-01T00:06:28.878Z,24.20
2018-02-01T00:08:56.639Z,27.67
2018-02-01T00:11:24.600Z,24.60
2018-02-01T00:13:57.247Z,26.70
2018-02-01T00:16:24.944Z,22.67
2018-02-01T00:18:55.888Z,25.07
2018-02-01T00:21:22.746Z,28.53
2018-02-01T00:23:49.468Z,26.90
2018-02-01T00:26:16.166Z,26.33
2018-02-01T00:28:43.924Z,24.50
2018-02-01T00:31:12.569Z,21.97
2018-02-01T00:33:39.254Z,21.67
2018-02-01T00:36:07.910Z,20.07
2018-02-01T00:38:34.625Z,18.23
2018-02-01T00:41:03.192Z,23.93
2018-02-01T00:43:31.954Z,19.80
2018-02-01T00:45:58.698Z,20.33
2018-02-01T00:48:26.446Z,19.60
2018-02-01T00:50:53.214Z,18.53
2018-02-01T00:53:19.924Z,18.90
2018-02-01T00:55:46.608Z,19.87
2018-02-01T00:58:14.370Z,19.03
2018-02-01T01:00:42.102Z,24.93
2018-02-01T01:03:08.804Z,23.37
2018-02-01T01:05:36.534Z,19.90
2018-02-01T01:08:03.257Z,27.40
2018-02-01T01:10:29.989Z,23.27
2018-02-01T01:12:57.821Z,23.57
2018-02-01T01:15:25.540Z,21.20
2018-02-01T01:18:01.902Z,21.13
2018-02-01T01:20:29.573Z,19.03
2018-02-01T01:22:56.311Z,20.53
2018-02-01T01:25:23.033Z,22.47
2018-02-01T01:27:50.726Z,20.37
2018-02-01T01:30:17.414Z,20.87
2018-02-01T01:32:45.174Z,21.60
2018-02-01T01:35:12.905Z,22.10
2018-02-01T01:37:39.594Z,22.90
2018-02-01T01:40:12.518Z,22.70
2018-02-01T01:42:40.187Z,21.83
2018-02-01T01:45:07.861Z,22.77
2018-02-01T01:47:35.569Z,23.00
2018-02-01T01:50:03.201Z,26.63
2018-02-01T01:52:30.941Z,27.00
2018-02-01T01:54:58.714Z,26.07
2018-02-01T01:57:26.405Z,25.37
2018-02-01T01:59:53.083Z,34.23
2018-02-01T02:02:19.816Z,28.43
2018-02-01T02:04:51.954Z,35.13
2018-02-01T02:07:28.142Z,28.23
2018-02-01T02:09:56.818Z,30.50
2018-02-01T02:12:24.595Z,27.67
2018-02-01T02:15:06.145Z,28.63
2018-02-01T02:20:19.823Z,30.93
2018-02-01T02:25:37.537Z,32.60
2018-02-01T02:28:05.244Z,29.63
2018-02-01T02:43:23.975Z,26.30
2018-02-01T02:46:08.564Z,28.90
2018-02-01T02:48:40.827Z,30.50
2018-02-01T02:51:09.545Z,31.27
2018-02-01T02:53:50.089Z,28.70
2018-02-01T02:56:17.793Z,25.30
2018-02-01T02:58:44.463Z,28.80
2018-02-01T03:01:11.291Z,27.67
2018-02-01T03:03:38.021Z,28.47
2018-02-01T03:06:04.750Z,26.17
2018-02-01T03:08:32.477Z,31.37
2018-02-01T03:11:00.215Z,32.07
2018-02-01T03:18:58.970Z,31.40
2018-02-01T03:21:27.632Z,29.67
2018-02-01T03:23:54.327Z,35.50
2018-02-01T03:26:21.059Z,35.47
2018-02-01T03:28:47.745Z,38.47
2018-02-01T03:31:14.513Z,39.10
2018-02-01T03:33:41.250Z,38.77
2018-02-01T03:36:07.942Z,38.20
2018-02-01T03:38:35.655Z,40.30
2018-02-01T03:41:02.396Z,38.43
2018-02-01T03:43:30.067Z,44.30
2018-02-01T03:45:57.309Z,39.10
2018-02-01T03:48:25.159Z,45.60
2018-02-01T03:50:52.871Z,38.93
2018-02-01T03:53:20.529Z,37.07
2018-02-01T03:55:48.233Z,39.13
2018-02-01T03:58:15.963Z,34.07
2018-02-01T04:00:43.623Z,35.03
2018-02-01T04:03:10.343Z,33.63
2018-02-01T04:05:38.023Z,38.60
2018-02-01T04:08:05.701Z,33.03
2018-02-01T04:10:32.441Z,34.50
2018-02-01T04:13:13.601Z,39.60
2018-02-01T04:15:41.343Z,32.23
2018-02-01T04:18:09.067Z,40.20
2018-02-01T04:20:35.752Z,39.07
2018-02-01T04:23:03.513Z,38.83
2018-02-01T04:25:31.301Z,37.97
2018-02-01T04:28:03.411Z,33.17
2018-02-01T04:30:35.111Z,34.23
2018-02-01T04:33:03.703Z,26.53
2018-02-01T04:35:32.343Z,30.93
2018-02-01T04:38:00.061Z,33.27
2018-02-01T04:40:27.688Z,30.83
2018-02-01T04:42:56.374Z,32.40
2018-02-01T04:45:24.109Z,31.57
2018-02-01T04:47:51.861Z,30.63
2018-02-01T04:50:24.447Z,29.87
2018-02-01T04:52:53.183Z,31.00
2018-02-01T04:55:19.859Z,34.47
2018-02-01T04:57:47.524Z,41.17
2018-02-01T05:00:15.264Z,44.50
2018-02-01T05:02:43.961Z,37.87
2018-02-01T05:14:50.732Z,41.47
2018-02-01T05:17:19.499Z,41.70
2018-02-01T05:19:49.199Z,44.03
2018-02-01T05:31:57.996Z,43.37
2018-02-01T05:34:24.675Z,45.97
2018-02-01T05:36:51.380Z,45.20
2018-02-01T05:39:19.111Z,42.27
2018-02-01T05:41:45.804Z,45.77
2018-02-01T05:44:13.475Z,41.43
2018-02-01T05:46:42.544Z,46.60
2018-02-01T05:49:10.253Z,47.87
2018-02-01T05:51:37.010Z,44.43
2018-02-01T05:54:04.702Z,43.77
2018-02-01T05:56:32.440Z,44.77
2018-02-01T05:59:01.165Z,44.93
2018-02-01T06:01:28.939Z,51.53
2018-02-01T06:03:56.638Z,46.00
2018-02-01T06:06:30.124Z,43.67
2018-02-01T06:12:00.372Z,38.07
2018-02-01T06:14:31.277Z,34.70
2018-02-01T06:16:59.001Z,35.83
2018-02-01T06:19:28.731Z,33.97
2018-02-01T06:21:55.480Z,44.13
2018-02-01T06:24:23.172Z,38.33
2018-02-01T06:26:50.941Z,35.23
2018-02-01T06:29:17.671Z,34.67
2018-02-01T06:31:45.348Z,35.63
2018-02-01T06:34:14.016Z,31.73
2018-02-01T06:36:41.676Z,39.23
2018-02-01T06:39:09.370Z,38.37
2018-02-01T06:41:37.014Z,40.13
2018-02-01T06:44:03.726Z,42.60
2018-02-01T06:46:32.502Z,39.73
2018-02-01T06:49:00.196Z,49.40
2018-02-01T06:51:27.858Z,51.50
2018-02-01T06:53:56.602Z,51.97
2018-02-01T06:56:24.218Z,48.17
2018-02-01T06:58:51.888Z,42.20
2018-02-01T07:01:35.312Z,41.00
2018-02-01T07:04:03.216Z,43.50
2018-02-01T07:06:30.884Z,43.40
2018-02-01T07:08:59.600Z,41.43
2018-02-01T07:11:26.306Z,42.73
2018-02-01T07:13:53.974Z,48.33
2018-02-01T07:16:20.742Z,42.73
2018-02-01T07:18:47.469Z,38.03
2018-02-01T07:21:26.448Z,41.37
2018-02-01T07:23:54.232Z,38.73
2018-02-01T07:26:21.930Z,37.97
2018-02-01T07:28:49.724Z,33.93
2018-02-01T07:31:20.438Z,36.03
2018-02-01T07:33:47.125Z,31.97
2018-02-01T07:36:13.886Z,34.47
2018-02-01T07:38:41.606Z,33.60
2018-02-01T07:41:08.372Z,30.27
2018-02-01T07:43:37.058Z,28.93
2018-02-01T07:46:04.596Z,33.00
2018-02-01T07:48:31.268Z,40.90
2018-02-01T07:51:05.656Z,37.67
2018-02-01T07:53:32.337Z,37.17
2018-02-01T07:56:00.646Z,34.00
2018-02-01T07:58:28.397Z,32.93
2018-02-01T08:00:55.076Z,32.13
2018-02-01T08:03:34.686Z,30.87
2018-02-01T08:06:03.340Z,26.77
2018-02-01T08:08:39.183Z,29.77
2018-02-01T08:11:05.865Z,30.17
2018-02-01T08:13:33.643Z,25.30
2018-02-01T08:16:01.436Z,26.87
2018-02-01T08:18:29.120Z,30.20
2018-02-01T08:20:57.809Z,26.27
2018-02-01T08:23:24.624Z,25.80
2018-02-01T08:25:52.331Z,27.70
2018-02-01T08:28:20.002Z,31.00
2018-02-01T08:30:46.718Z,28.47
2018-02-01T08:33:15.448Z,28.17
2018-02-01T08:35:45.112Z,29.27
2018-02-01T08:38:12.869Z,25.50
2018-02-01T08:40:40.600Z,29.40
2018-02-01T08:43:07.330Z,26.10
2018-02-01T08:45:41.823Z,31.73
2018-02-01T08:48:10.570Z,26.87
2018-02-01T08:50:37.284Z,28.40
2018-02-01T08:53:04.024Z,24.17
2018-02-01T08:55:31.835Z,20.70
2018-02-01T08:58:00.068Z,26.30
2018-02-01T09:00:26.857Z,33.60
2018-02-01T09:02:55.517Z,33.70
2018-02-01T09:08:09.709Z,39.50
2018-02-01T09:10:36.464Z,38.17
2018-02-01T09:13:04.101Z,40.43
2018-02-01T09:15:30.810Z,38.40
2018-02-01T09:17:58.552Z,39.60
2018-02-01T09:20:26.279Z,45.53
2018-02-01T09:22:53.023Z,36.63
2018-02-01T09:25:19.751Z,38.20
2018-02-01T09:27:47.444Z,37.43
2018-02-01T09:43:05.222Z,33.10
2018-02-01T09:45:31.918Z,34.60
2018-02-01T09:47:58.601Z,34.53
2018-02-01T09:50:25.336Z,34.90
2018-02-01T09:52:52.980Z,34.53
2018-02-01T09:55:24.742Z,32.40
2018-02-01T09:57:51.531Z,40.47
2018-02-01T10:00:19.234Z,43.77
2018-02-01T10:02:47.990Z,38.93
2018-02-01T10:05:16.658Z,41.37
2018-02-01T10:07:43.370Z,34.07
2018-02-01T10:10:10.054Z,43.43
2018-02-01T10:12:38.730Z,33.40
2018-02-01T10:15:06.480Z,45.40
2018-02-01T10:17:33.200Z,47.00
2018-02-01T10:20:00.916Z,57.67
2018-02-01T10:22:27.664Z,77.20
2018-02-01T10:24:55.396Z,79.10
2018-02-01T10:27:22.175Z,81.77
2018-02-01T10:29:50.846Z,75.50
2018-02-01T10:32:17.568Z,80.70
2018-02-01T10:34:44.312Z,76.23
2018-02-01T10:37:10.996Z,71.90
2018-02-01T10:39:38.736Z,81.33
2018-02-01T10:42:07.476Z,85.77
2018-02-01T10:44:35.236Z,83.97
2018-02-01T10:47:02.954Z,82.03
2018-02-01T10:49:29.686Z,76.00
2018-02-01T11:04:30.018Z,84.97
2018-02-01T11:06:56.826Z,84.93
2018-02-01T11:09:24.538Z,86.00
2018-02-01T11:11:52.208Z,91.13
2018-02-01T11:14:19.926Z,89.40
2018-02-01T11:16:46.605Z,92.60
2018-02-01T11:19:14.281Z,97.90
2018-02-01T11:21:41.248Z,100.93
2018-02-01T11:24:07.986Z,98.20
2018-02-01T11:26:34.746Z,113.27
2018-02-01T11:29:02.436Z,114.27
2018-02-01T11:31:30.581Z,112.80
2018-02-01T11:33:57.578Z,112.70
2018-02-01T11:36:26.358Z,112.03
2018-02-01T11:38:54.110Z,114.63
2018-02-01T11:54:11.872Z,98.30
2018-02-01T11:56:39.596Z,103.97
2018-02-01T11:59:06.308Z,93.43
2018-02-01T12:01:36.836Z,95.03
2018-02-01T12:04:03.587Z,88.00
2018-02-01T12:06:30.290Z,83.47
2018-02-01T12:08:58.132Z,83.73
2018-02-01T12:11:25.810Z,73.30
2018-02-01T12:14:01.148Z,76.50
2018-02-01T12:16:28.822Z,85.07
2018-02-01T12:18:55.594Z,88.67
2018-02-01T12:21:24.320Z,90.17
2018-02-01T12:23:51.038Z,88.87
2018-02-01T12:26:18.750Z,96.37
2018-02-01T12:28:46.453Z,103.40
2018-02-01T12:31:15.114Z,102.87
2018-02-01T12:33:41.844Z,100.10
2018-02-01T12:36:08.590Z,94.43
2018-02-01T12:38:35.306Z,95.90
2018-02-01T12:41:03.058Z,88.33
2018-02-01T12:43:30.818Z,90.57
2018-02-01T12:45:58.736Z,98.17
2018-02-01T12:48:26.373Z,97.00
2018-02-01T12:50:54.112Z,98.53
2018-02-01T12:53:21.745Z,94.63
2018-02-01T12:55:49.416Z,93.90
2018-02-01T13:03:48.015Z,100.53
2018-02-01T13:06:15.715Z,97.17
2018-02-01T13:08:43.613Z,93.63
2018-02-01T13:11:12.302Z,93.20
2018-02-01T13:13:40.950Z,94.53
2018-02-01T13:16:07.652Z,95.30
2018-02-01T13:18:35.420Z,88.60
2018-02-01T13:21:03.200Z,85.50
2018-02-01T13:23:30.910Z,86.70
2018-02-01T13:25:57.727Z,85.40
2018-02-01T13:28:25.440Z,78.70
2018-02-01T13:30:53.503Z,85.83
2018-02-01T13:33:21.210Z,80.90
2018-02-01T13:35:49.846Z,81.53
2018-02-01T13:38:16.546Z,79.90
2018-02-01T13:40:45.225Z,84.60
2018-02-01T13:43:11.929Z,87.17
2018-02-01T13:45:39.608Z,80.77
2018-02-01T13:48:07.410Z,86.97
2018-02-01T13:50:34.118Z,90.73
2018-02-01T13:53:00.854Z,92.47
2018-02-01T14:05:09.844Z,99.20
2018-02-01T14:07:44.282Z,111.97
2018-02-01T14:10:11.009Z,102.63
2018-02-01T14:12:38.691Z,103.50
2018-02-01T14:15:05.402Z,98.93
2018-02-01T14:17:33.165Z,105.17
2018-02-01T14:20:00.894Z,106.57
2018-02-01T14:22:27.628Z,103.70
2018-02-01T14:24:54.418Z,104.93
2018-02-01T14:27:21.112Z,105.37
2018-02-01T14:29:48.770Z,100.50
2018-02-01T14:32:15.550Z,103.30
2018-02-01T14:34:44.218Z,98.07
2018-02-01T14:37:12.804Z,101.43
2018-02-01T14:39:39.530Z,110.63
2018-02-01T14:42:06.256Z,113.50
2018-02-01T14:44:33.950Z,114.53
2018-02-01T14:47:00.683Z,119.33
2018-02-01T14:49:29.398Z,113.77
2018-02-01T14:51:58.071Z,122.60
2018-02-01T14:54:24.798Z,125.60
2018-02-01T14:56:51.502Z,124.17
2018-02-01T14:59:19.228Z,132.60
2018-02-01T15:01:45.971Z,142.97
2018-02-01T15:04:14.673Z,149.17
2018-02-01T15:06:50.134Z,153.83
2018-02-01T15:09:16.870Z,155.63
2018-02-01T15:11:43.613Z,155.13
2018-02-01T15:14:11.354Z,141.07
2018-02-01T15:16:39.076Z,139.93
2018-02-01T15:19:11.539Z,140.97
2018-02-01T15:21:38.272Z,143.73
2018-02-01T15:36:56.039Z,160.47
2018-02-01T15:39:23.805Z,154.30
2018-02-01T15:41:52.487Z,173.40
2018-02-01T15:44:20.269Z,184.63
2018-02-01T15:46:48.076Z,196.73
2018-02-01T15:49:15.777Z,211.17
2018-02-01T15:51:42.589Z,214.80
2018-02-01T15:56:55.213Z,226.70
2018-02-01T15:59:24.023Z,242.67
2018-02-01T16:01:52.730Z,267.10
2018-02-01T16:04:19.475Z,295.07
2018-02-01T16:06:46.235Z,322.97
2018-02-01T16:09:12.985Z,344.17
2018-02-01T16:11:41.087Z,371.10
2018-02-01T16:14:08.833Z,377.33
2018-02-01T16:16:36.485Z,359.87
2018-02-01T16:19:04.517Z,353.47
2018-02-01T16:21:32.249Z,342.77
2018-02-01T16:24:02.961Z,347.70
2018-02-01T16:26:34.751Z,332.27
2018-02-01T16:29:03.506Z,324.70
2018-02-01T16:31:30.202Z,326.00
2018-02-01T16:33:57.993Z,311.40
2018-02-01T16:36:25.724Z,294.90
2018-02-01T16:38:58.411Z,288.00
2018-02-01T16:41:26.175Z,275.27
2018-02-01T16:43:53.905Z,268.33
2018-02-01T16:46:20.665Z,278.93
2018-02-01T16:48:47.413Z,298.23
2018-02-01T16:51:14.754Z,225.40
2018-02-01T16:53:41.497Z,214.10
2018-02-01T16:56:09.175Z,199.93
2018-02-01T16:58:36.825Z,201.60
2018-02-01T17:01:03.599Z,196.70
2018-02-01T17:03:30.324Z,192.90
2018-02-01T17:05:57.083Z,200.73
2018-02-01T17:08:24.752Z,202.30
2018-02-01T17:10:53.429Z,189.70
2018-02-01T17:13:21.212Z,195.43
2018-02-01T17:15:47.963Z,199.30
2018-02-01T17:18:15.595Z,190.53
2018-02-01T17:20:42.290Z,196.80
2018-02-01T17:23:10.061Z,202.73
2018-02-01T17:25:37.817Z,188.77
2018-02-01T17:28:13.362Z,188.30
2018-02-01T17:30:42.020Z,185.57
2018-02-01T17:33:09.683Z,185.93
2018-02-01T17:35:36.844Z,174.60
2018-02-01T17:38:05.525Z,182.50
2018-02-01T17:40:33.200Z,189.40
2018-02-01T17:43:00.073Z,180.20
2018-02-01T17:45:27.813Z,182.13
2018-02-01T17:47:56.511Z,217.03
2018-02-01T17:50:24.244Z,235.30
2018-02-01T17:52:51.952Z,235.70
2018-02-01T17:55:19.443Z,266.97
2018-02-01T17:57:46.187Z,293.30
2018-02-01T18:00:12.905Z,324.07
2018-02-01T18:02:40.587Z,325.07
2018-02-01T18:05:08.347Z,326.07
2018-02-01T18:07:35.069Z,341.47
2018-02-01T18:10:02.751Z,351.37
2018-02-01T18:12:29.555Z,355.70
2018-02-01T18:14:57.244Z,337.77
2018-02-01T18:17:24.905Z,360.87
2018-02-01T18:19:52.611Z,379.43
2018-02-01T18:22:20.362Z,377.17
2018-02-01T18:24:48.019Z,341.57
2018-02-01T18:27:14.808Z,331.83
2018-02-01T18:29:42.518Z,328.77
2018-02-01T18:32:09.277Z,322.27
2018-02-01T18:34:36.050Z,314.57
2018-02-01T18:37:04.697Z,305.20
2018-02-01T18:39:31.428Z,304.83
2018-02-01T18:41:59.143Z,337.83
2018-02-01T18:44:40.069Z,336.30
2018-02-01T18:47:25.556Z,333.90
2018-02-01T18:49:53.241Z,324.17
2018-02-01T18:52:19.975Z,306.67
2018-02-01T18:54:46.687Z,347.83
2018-02-01T18:57:14.476Z,336.17
2018-02-01T18:59:42.263Z,333.53
2018-02-01T19:02:10.961Z,334.07
2018-02-01T19:04:37.707Z,310.90
2018-02-01T19:07:05.407Z,316.27
2018-02-01T19:09:33.141Z,313.13
2018-02-01T19:12:00.799Z,314.43
2018-02-01T19:14:27.545Z,349.73
2018-02-01T19:16:56.241Z,349.17
2018-02-01T19:19:22.990Z,347.37
2018-02-01T19:21:50.693Z,370.77
2018-02-01T19:24:18.407Z,366.43
2018-02-01T19:26:45.897Z,422.40
2018-02-01T19:29:13.596Z,424.83
2018-02-01T19:31:41.344Z,407.07
2018-02-01T19:34:10.035Z,379.80
2018-02-01T19:36:37.798Z,394.47
2018-02-01T19:39:06.472Z,377.47
2018-02-01T19:41:35.151Z,420.67
2018-02-01T19:44:02.777Z,448.63
2018-02-01T19:46:30.503Z,435.50
2018-02-01T19:48:57.219Z,379.37
2018-02-01T19:51:25.947Z,378.73
2018-02-01T19:53:53.731Z,359.77
2018-02-01T19:56:21.449Z,353.87
2018-02-01T19:58:48.241Z,349.53
2018-02-01T20:01:14.931Z,356.83
2018-02-01T20:03:41.625Z,356.97
2018-02-01T20:06:09.385Z,370.73
2018-02-01T20:08:36.106Z,381.60
2018-02-01T20:11:02.831Z,328.10
2018-02-01T20:13:29.573Z,281.87
2018-02-01T20:16:01.337Z,267.70
2018-02-01T20:18:33.054Z,266.33
2018-02-01T20:21:05.423Z,207.47
2018-02-01T20:23:33.209Z,165.43
2018-02-01T20:26:00.909Z,162.60
2018-02-01T20:28:27.600Z,127.10
2018-02-01T20:30:55.356Z,124.30
2018-02-01T20:33:22.992Z,117.47
2018-02-01T20:35:49.731Z,126.97
2018-02-01T20:38:17.494Z,124.53
2018-02-01T20:40:45.153Z,99.73
2018-02-01T20:43:12.831Z,92.37
2018-02-01T20:48:31.931Z,72.40
2018-02-01T20:50:59.343Z,68.23
2018-02-01T20:53:32.763Z,55.53
2018-02-01T20:56:13.747Z,50.43
2018-02-01T20:58:41.418Z,43.70
2018-02-01T21:01:09.135Z,52.00
2018-02-01T21:03:36.953Z,45.07
2018-02-01T21:06:05.640Z,46.57
2018-02-01T21:08:33.365Z,47.20
2018-02-01T21:11:13.650Z,50.27
2018-02-01T21:13:42.375Z,43.77
2018-02-01T21:16:10.057Z,39.60
2018-02-01T21:18:38.769Z,36.70
2018-02-01T21:21:06.743Z,31.83
2018-02-01T21:23:33.435Z,33.97
2018-02-01T21:26:02.175Z,27.00
2018-02-01T21:28:29.942Z,40.73
2018-02-01T21:31:01.501Z,40.70
2018-02-01T21:33:29.271Z,39.27
2018-02-01T21:35:56.985Z,46.10
2018-02-01T21:38:24.679Z,36.57
2018-02-01T21:40:51.450Z,39.30
2018-02-01T21:43:19.083Z,35.57
2018-02-01T21:45:58.791Z,40.27
2018-02-01T21:48:25.491Z,35.63
2018-02-01T21:50:52.216Z,36.47
2018-02-01T21:53:20.931Z,36.40
2018-02-01T21:55:47.664Z,37.80
2018-02-01T21:58:14.413Z,29.70
2018-02-01T22:00:41.181Z,31.47
2018-02-01T22:03:07.884Z,27.87
2018-02-01T22:05:35.551Z,35.30
2018-02-01T22:08:03.264Z,42.20
2018-02-01T22:10:29.955Z,40.77
2018-02-01T22:12:57.621Z,48.43
2018-02-01T22:15:25.339Z,37.20
2018-02-01T22:17:53.067Z,30.23
2018-02-01T22:20:19.836Z,34.10
2018-02-01T22:22:47.610Z,27.47
2018-02-01T22:25:15.334Z,22.80
2018-02-01T22:27:43.011Z,25.53
2018-02-01T22:30:11.717Z,35.07
2018-02-01T22:42:18.558Z,34.13
2018-02-01T22:44:45.284Z,31.07
2018-02-01T22:47:12.167Z,40.17
2018-02-01T22:49:38.931Z,35.17
2018-02-01T22:52:06.664Z,44.63
2018-02-01T22:54:34.327Z,42.77
2018-02-01T22:57:02.015Z,46.20
2018-02-01T22:59:28.747Z,38.23
2018-02-01T23:01:56.399Z,50.93
2018-02-01T23:04:24.106Z,49.03
2018-02-01T23:06:51.819Z,51.57
2018-02-01T23:09:19.501Z,63.37
2018-02-01T23:11:47.217Z,66.40
2018-02-01T23:14:14.963Z,55.50
2018-02-01T23:16:41.691Z,52.47
2018-02-01T23:19:08.470Z,45.77
2018-02-01T23:21:36.192Z,46.80
2018-02-01T23:24:03.863Z,48.93
2018-02-01T23:26:31.567Z,45.50
2018-02-01T23:29:00.206Z,47.87
2018-02-01T23:31:27.875Z,36.70
2018-02-01T23:33:55.638Z,36.10
2018-02-01T23:36:24.323Z,35.13
2018-02-01T23:38:52.004Z,37.20
2018-02-01T23:41:20.741Z,37.90
2018-02-01T23:43:48.466Z,40.83
2018-02-01T23:46:18.268Z,33.97
2018-02-01T23:48:49.040Z,36.17
2018-02-01T23:51:15.759Z,38.13
2018-02-01T23:53:44.437Z,37.57
2018-02-01T23:56:13.170Z,36.90
2018-02-01T23:58:39.906Z,38.83
